Time;durP1;ratioP1;P1;durP2;ratioP2;P2;SDS_P1;SDS_P2;PMS_P1;PMS_P2;Temp;Humidity;BMP_temperature;BMP_pressure;BME280_temperature;BME280_humidity;BME280_pressure;Samples;Min_cycle;Max_cycle;Signal;HPM_P1;HPM_P2
2022/10/04 00:01:07;;;;;;;2.25;1.73;;;;;;;14.20;52.48;99753.53;5112586;28;20396;-37
2022/10/04 00:03:42;;;;;;;6.05;1.70;;;;;;;13.89;53.04;99747.31;5112730;28;20045;-36
2022/10/04 00:06:36;;;;;;;5.30;1.73;;;;;;;14.44;52.07;99749.03;5112822;28;20111;-36
2022/10/04 00:09:15;;;;;;;1.92;1.60;;;;;;;14.79;50.91;99753.72;5109378;28;20039;-36
2022/10/04 00:11:46;;;;;;;3.70;1.75;;;;;;;14.71;50.77;99737.16;5112400;27;20047;-36
2022/10/04 00:14:17;;;;;;;2.72;1.73;;;;;;;14.79;51.05;99743.00;5112405;27;20096;-36
2022/10/04 00:16:43;;;;;;;3.85;2.60;;;;;;;14.88;50.39;99730.06;5112250;28;20032;-36
2022/10/04 00:19:14;;;;;;;4.35;3.10;;;;;;;14.65;51.16;99741.56;5112743;28;20456;-36
2022/10/04 00:21:58;;;;;;;4.57;2.50;;;;;;;14.45;51.61;99736.50;5112270;28;20047;-36
2022/10/04 00:24:33;;;;;;;2.75;2.28;;;;;;;13.91;53.18;99748.97;5112547;28;20038;-36
2022/10/04 00:27:18;;;;;;;3.67;1.90;;;;;;;13.88;53.33;99734.19;5112139;28;20023;-35
2022/10/04 00:30:09;;;;;;;4.43;1.85;;;;;;;13.53;53.88;99728.63;5111936;28;20491;-36
2022/10/04 00:32:38;;;;;;;4.47;1.70;;;;;;;13.96;53.46;99749.13;5101028;28;20056;-37
2022/10/04 00:35:23;;;;;;;3.38;1.73;;;;;;;14.00;52.97;99748.41;5112097;28;20027;-37
2022/10/04 00:38:20;;;;;;;5.50;1.95;;;;;;;14.10;52.77;99757.78;5112179;28;20475;-37
2022/10/04 00:40:54;;;;;;;3.53;1.80;;;;;;;14.12;52.82;99755.69;5091217;28;20036;-36
2022/10/04 00:43:25;;;;;;;2.45;1.67;;;;;;;14.07;52.97;99761.72;5091520;28;20035;-36
2022/10/04 00:45:58;;;;;;;3.88;2.00;;;;;;;13.88;53.25;99753.72;5091304;28;20024;-36
2022/10/04 00:48:33;;;;;;;2.72;1.73;;;;;;;13.97;53.11;99754.22;5091444;28;20450;-36
2022/10/04 00:51:11;;;;;;;3.67;1.90;;;;;;;14.19;52.31;99751.88;5091776;28;20034;-36
2022/10/04 00:54:02;;;;;;;3.83;1.65;;;;;;;14.18;52.40;99757.44;5091489;28;20036;-36
2022/10/04 00:56:33;;;;;;;6.00;1.80;;;;;;;14.20;52.51;99756.19;5091158;28;20067;-36
2022/10/04 00:59:12;;;;;;;3.38;1.85;;;;;;;14.17;52.44;99761.19;5091332;28;20590;-36
2022/10/04 01:01:38;;;;;;;3.33;1.75;;;;;;;14.25;52.20;99767.03;5091377;28;20097;-37
2022/10/04 01:04:13;;;;;;;2.67;1.90;;;;;;;13.93;53.15;99768.28;5091162;28;20104;-37
2022/10/04 01:06:40;;;;;;;5.95;2.10;;;;;;;13.99;53.12;99767.38;5091273;28;20035;-36
2022/10/04 01:09:09;;;;;;;3.70;1.70;;;;;;;14.11;52.90;99762.06;5091077;28;20078;-36
2022/10/04 01:11:41;;;;;;;2.65;1.90;;;;;;;13.88;53.52;99753.72;5091438;28;20016;-36
2022/10/04 01:14:18;;;;;;;2.83;1.92;;;;;;;13.71;53.96;99754.53;5090884;28;20020;-36
2022/10/04 01:16:43;;;;;;;4.05;2.00;;;;;;;13.95;53.60;99747.47;5091053;28;20024;-36
2022/10/04 01:19:29;;;;;;;3.50;1.77;;;;;;;14.10;53.02;99760.44;5091015;28;20465;-37
2022/10/04 01:22:55;;;;;;;4.30;1.98;;;;;;;14.12;53.30;99763.72;5089884;28;20543;-37
2022/10/04 01:25:50;;;;;;;3.47;1.80;;;;;;;14.04;53.03;99767.53;5068174;28;20091;-38
2022/10/04 01:28:15;;;;;;;3.85;1.90;;;;;;;14.32;52.44;99758.91;5067949;28;20033;-38
2022/10/04 01:30:42;;;;;;;4.18;1.73;;;;;;;14.30;52.50;99760.16;5082555;28;20036;-36
2022/10/04 01:33:11;;;;;;;3.53;1.90;;;;;;;14.20;52.77;99763.38;5090624;28;20015;-36
2022/10/04 01:35:36;;;;;;;3.42;1.90;;;;;;;14.27;52.58;99764.94;5090435;28;20483;-36
2022/10/04 01:38:06;;;;;;;3.75;1.85;;;;;;;14.35;52.38;99768.34;5090708;28;20090;-36
2022/10/04 01:40:33;;;;;;;3.67;1.73;;;;;;;14.17;51.99;99761.19;5090806;28;20024;-36
2022/10/04 01:43:04;;;;;;;6.57;1.88;;;;;;;14.33;51.88;99767.75;5093535;28;20079;-36
2022/10/04 01:45:44;;;;;;;2.88;1.85;;;;;;;14.20;52.11;99769.59;5110642;27;20456;-36
2022/10/04 01:48:14;;;;;;;4.70;1.98;;;;;;;14.05;51.85;99769.13;5110728;28;20056;-36
2022/10/04 01:50:50;;;;;;;3.25;1.90;;;;;;;14.44;51.08;99777.69;5110855;28;20035;-36
2022/10/04 01:53:27;;;;;;;1.85;1.60;;;;;;;14.45;50.86;99768.63;5110797;28;20043;-37
2022/10/04 01:56:05;;;;;;;3.33;1.90;;;;;;;14.20;51.47;99766.06;5109028;28;20030;-36
2022/10/04 01:59:05;;;;;;;8.10;1.88;;;;;;;14.26;51.57;99781.25;5110568;28;20122;-36
2022/10/04 02:02:14;;;;;;;2.85;1.80;;;;;;;14.22;51.46;99778.19;5066477;28;20038;-36
2022/10/04 02:04:41;;;;;;;2.78;1.73;;;;;;;14.42;51.15;99769.88;5052538;28;20044;-36
2022/10/04 02:07:12;;;;;;;3.58;1.90;;;;;;;14.22;51.68;99777.34;5099882;28;20134;-36
2022/10/04 02:09:42;;;;;;;2.13;1.73;;;;;;;14.56;50.86;99769.69;5090653;28;20142;-36
2022/10/04 02:12:08;;;;;;;3.28;1.80;;;;;;;14.43;50.93;99781.41;5090965;28;20020;-37
2022/10/04 02:14:35;;;;;;;2.47;1.92;;;;;;;13.93;52.12;99766.41;5090546;28;20480;-37
2022/10/04 02:17:09;;;;;;;4.10;1.77;;;;;;;13.85;52.97;99780.09;5090616;28;20105;-37
2022/10/04 02:19:40;;;;;;;2.58;1.77;;;;;;;13.77;53.07;99777.72;5090196;28;20028;-36
2022/10/04 02:22:09;;;;;;;3.80;2.10;;;;;;;13.83;53.34;99777.66;5089899;28;20044;-37
2022/10/04 02:24:40;;;;;;;4.25;2.00;;;;;;;13.72;53.71;99781.06;5090351;28;20560;-37
2022/10/04 02:27:06;;;;;;;6.82;2.20;;;;;;;13.90;53.41;99785.59;5089789;28;20450;-36
2022/10/04 02:29:32;;;;;;;3.08;1.83;;;;;;;13.79;53.69;99787.16;5089558;28;20483;-37
2022/10/04 02:34:42;;;;;;;5.13;1.90;;;;;;;13.64;53.99;99784.03;5094075;28;20081;-36
2022/10/04 02:37:08;;;;;;;2.13;1.90;;;;;;;13.64;54.59;99792.06;5094045;28;20115;-36
2022/10/04 02:39:39;;;;;;;3.10;1.98;;;;;;;13.55;55.14;99791.53;5093724;28;20077;-36
2022/10/04 02:42:46;;;;;;;3.08;2.10;;;;;;;13.65;54.73;99783.81;5093844;28;20020;-36
2022/10/04 02:45:22;;;;;;;3.03;2.00;;;;;;;13.55;54.75;99780.84;5011773;28;20026;-36
2022/10/04 02:47:55;;;;;;;2.10;1.90;;;;;;;13.80;54.47;99777.28;5086132;28;20056;-36
2022/10/04 02:50:47;;;;;;;2.25;2.00;;;;;;;13.73;54.75;99788.06;5094150;28;20099;-37
2022/10/04 02:53:32;;;;;;;2.88;2.00;;;;;;;13.84;54.92;99783.81;5084439;28;20040;-36
2022/10/04 02:56:01;;;;;;;3.60;1.95;;;;;;;13.91;55.20;99787.22;5093998;28;20093;-36
2022/10/04 02:58:27;;;;;;;3.13;2.10;;;;;;;13.44;55.64;99786.91;5093297;28;20115;-37
2022/10/04 03:00:59;;;;;;;3.10;2.25;;;;;;;13.42;56.28;99794.34;5093441;28;20099;-37
2022/10/04 03:03:28;;;;;;;2.75;2.10;;;;;;;13.82;54.93;99791.22;5093281;28;20502;-35
2022/10/04 03:06:14;;;;;;;3.38;2.00;;;;;;;13.52;55.78;99796.50;5093290;28;20420;-37
2022/10/04 03:08:42;;;;;;;3.88;2.53;;;;;;;13.74;55.26;99808.41;5093580;28;20066;-37
2022/10/04 03:11:09;;;;;;;7.28;4.10;;;;;;;13.80;55.18;99809.38;5093575;28;20028;-37
2022/10/04 03:13:37;;;;;;;7.50;4.40;;;;;;;13.80;54.97;99804.84;5093184;28;20020;-38
2022/10/04 03:16:03;;;;;;;5.53;2.20;;;;;;;13.75;55.14;99802.03;5093413;28;20024;-36
2022/10/04 03:18:30;;;;;;;2.53;1.90;;;;;;;13.77;54.95;99805.28;5093497;28;20028;-36
2022/10/04 03:20:56;;;;;;;7.47;2.08;;;;;;;13.87;54.57;99804.75;5092550;28;20189;-36
2022/10/04 03:23:22;;;;;;;2.78;2.03;;;;;;;13.70;54.87;99793.84;5093080;28;20027;-36
2022/10/04 03:25:53;;;;;;;2.80;1.90;;;;;;;13.75;54.75;99798.53;5092926;28;20020;-36
2022/10/04 03:28:19;;;;;;;3.17;2.05;;;;;;;13.57;54.73;99799.31;5092925;28;20110;-36
2022/10/04 03:30:46;;;;;;;3.55;1.92;;;;;;;13.86;54.43;99801.28;5092903;28;20165;-36
2022/10/04 03:33:21;;;;;;;6.40;2.28;;;;;;;14.02;53.56;99805.19;5092807;28;20024;-36
2022/10/04 03:35:50;;;;;;;3.72;2.20;;;;;;;13.67;54.60;99805.81;5092673;28;20032;-36
2022/10/04 03:38:17;;;;;;;11.75;7.05;;;;;;;13.65;54.41;99807.06;5092725;28;20027;-36
2022/10/04 03:40:50;;;;;;;2.78;2.10;;;;;;;13.64;54.72;99813.47;5092604;28;20074;-36
2022/10/04 03:43:16;;;;;;;3.83;2.20;;;;;;;13.43;55.40;99810.16;5092633;28;20390;-36
2022/10/04 03:45:42;;;;;;;3.25;2.00;;;;;;;13.80;53.78;99799.50;5092053;28;20024;-36
2022/10/04 03:48:13;;;;;;;2.60;1.73;;;;;;;13.78;54.12;99816.78;5092689;28;20024;-36
2022/10/04 03:50:46;;;;;;;3.08;2.13;;;;;;;13.80;53.97;99810.22;5092790;28;20036;-35
2022/10/04 03:53:36;;;;;;;3.75;2.10;;;;;;;13.83;53.87;99819.63;5092394;28;20028;-36
2022/10/04 03:56:11;;;;;;;3.38;2.10;;;;;;;13.87;53.95;99818.13;5092085;28;20035;-36
2022/10/04 03:58:37;;;;;;;3.00;2.30;;;;;;;13.61;54.69;99822.75;5092331;28;20027;-36
2022/10/04 04:01:12;;;;;;;5.60;2.30;;;;;;;13.76;53.77;99818.88;5091784;28;20464;-36
2022/10/04 04:03:53;;;;;;;2.72;1.92;;;;;;;13.62;53.91;99815.53;5092369;28;20494;-36
2022/10/04 04:06:19;;;;;;;2.92;2.00;;;;;;;15.06;53.15;99822.94;5092306;28;20135;-36
2022/10/04 04:08:50;;;;;;;3.92;2.15;;;;;;;14.93;51.04;99815.94;5091859;28;20063;-36
2022/10/04 04:11:26;;;;;;;2.83;1.95;;;;;;;14.17;52.56;99814.72;5092291;28;20020;-36
2022/10/04 04:14:23;;;;;;;3.95;2.00;;;;;;;13.99;52.98;99819.03;5091520;28;20385;-36
2022/10/04 04:16:51;;;;;;;3.50;2.10;;;;;;;14.04;52.80;99829.88;5075979;28;20028;-36
2022/10/04 04:19:22;;;;;;;4.05;2.00;;;;;;;13.56;53.77;99829.78;5091838;28;20039;-36
2022/10/04 04:21:50;;;;;;;2.40;2.03;;;;;;;13.93;52.88;99835.16;5091435;28;20169;-36
2022/10/04 04:24:27;;;;;;;2.13;1.92;;;;;;;13.78;53.18;99825.63;5091865;28;20475;-36
2022/10/04 04:26:56;;;;;;;4.80;1.92;;;;;;;13.84;53.11;99839.97;5104258;28;20025;-37
2022/10/04 04:29:53;;;;;;;3.90;2.00;;;;;;;13.74;53.05;99837.81;5104304;27;20058;-36
2022/10/04 04:32:24;;;;;;;2.60;1.90;;;;;;;13.90;52.09;99844.44;5091713;28;20127;-36
2022/10/04 04:34:57;;;;;;;5.35;2.10;;;;;;;13.76;52.36;99846.44;5091292;28;20028;-37
2022/10/04 04:37:23;;;;;;;3.97;2.20;;;;;;;13.78;51.93;99840.88;5111694;28;20027;-35
2022/10/04 04:39:56;;;;;;;3.25;2.30;;;;;;;13.92;50.99;99838.84;5111618;28;20027;-36
2022/10/04 04:42:33;;;;;;;4.65;2.30;;;;;;;14.30;50.69;99851.19;5111228;28;20370;-35
2022/10/04 04:45:21;;;;;;;7.07;2.10;;;;;;;14.09;50.48;99839.91;5106676;28;20107;-36
2022/10/04 04:47:50;;;;;;;2.10;1.90;;;;;;;14.24;49.98;99847.53;5101353;28;20498;-37
2022/10/04 04:50:22;;;;;;;2.83;1.75;;;;;;;14.17;50.33;99846.81;5091154;28;20466;-35
2022/10/04 04:53:31;;;;;;;4.50;2.35;;;;;;;13.97;50.73;99847.84;5097325;28;20023;-37
2022/10/04 04:56:02;;;;;;;3.22;2.00;;;;;;;13.86;50.38;99841.41;5109991;28;20048;-37
2022/10/04 04:58:34;;;;;;;10.38;4.13;;;;;;;13.92;50.64;99842.38;5111022;28;20502;-36
2022/10/04 05:01:03;;;;;;;11.82;7.30;;;;;;;14.48;49.22;99854.63;5111378;28;20023;-36
2022/10/04 05:03:33;;;;;;;2.80;2.35;;;;;;;14.09;50.39;99864.00;5111068;28;20028;-37
2022/10/04 05:06:01;;;;;;;5.13;2.60;;;;;;;14.64;49.24;99855.06;5111277;28;20483;-37
2022/10/04 05:08:28;;;;;;;5.40;2.73;;;;;;;14.73;48.84;99855.59;5110509;28;20046;-36
2022/10/04 05:10:56;;;;;;;5.47;2.60;;;;;;;14.96;48.46;99850.28;5110171;28;20132;-37
2022/10/04 05:13:30;;;;;;;3.20;2.75;;;;;;;14.83;48.02;99856.69;5109871;27;20509;-36
2022/10/04 05:15:57;;;;;;;5.97;3.92;;;;;;;15.25;47.54;99856.66;5109812;28;20480;-37
2022/10/04 05:18:32;;;;;;;5.28;2.20;;;;;;;15.25;47.38;99853.97;5110045;28;20034;-43
2022/10/04 05:21:12;;;;;;;5.07;1.92;;;;;;;15.81;46.83;99859.81;5110658;28;20040;-37
2022/10/04 05:23:38;;;;;;;6.15;1.90;;;;;;;16.32;45.13;99860.06;5110942;28;20019;-36
2022/10/04 05:26:09;;;;;;;4.68;1.75;;;;;;;16.38;45.30;99863.69;5111670;28;20328;-37
2022/10/04 05:28:34;;;;;;;2.75;1.95;;;;;;;16.64;44.73;99869.53;5111111;28;20098;-35
2022/10/04 05:31:26;;;;;;;3.35;1.77;;;;;;;16.66;44.66;99883.53;5111639;28;20539;-35
2022/10/04 05:33:56;;;;;;;3.38;1.70;;;;;;;16.49;44.35;99870.88;5111037;28;20031;-36
2022/10/04 05:36:28;;;;;;;2.90;1.85;;;;;;;16.85;43.79;99881.50;5111146;27;20027;-37
2022/10/04 05:39:23;;;;;;;5.80;1.90;;;;;;;17.35;43.57;99899.56;5111337;28;20055;-36
2022/10/04 05:42:06;;;;;;;8.52;2.00;;;;;;;17.14;43.08;99893.03;5110575;28;20399;-36
2022/10/04 05:44:44;;;;;;;2.05;1.75;;;;;;;17.42;43.20;99896.72;5110736;27;20088;-36
2022/10/04 05:47:13;;;;;;;5.15;2.25;;;;;;;17.52;42.35;99905.75;5111026;28;20035;-36
2022/10/04 05:49:45;;;;;;;5.03;1.90;;;;;;;17.63;42.18;99909.44;5111359;28;20092;-36
2022/10/04 05:52:35;;;;;;;3.67;1.80;;;;;;;18.19;41.21;99912.13;5110597;28;20369;-36
2022/10/04 05:55:22;;;;;;;3.53;1.83;;;;;;;18.17;41.30;99911.56;5100367;28;20036;-35
2022/10/04 05:58:25;;;;;;;6.25;1.88;;;;;;;18.17;41.40;99928.53;5109890;28;20106;-36
2022/10/04 06:00:59;;;;;;;6.10;1.98;;;;;;;17.77;42.09;99926.06;5108829;28;20031;-36
2022/10/04 06:03:30;;;;;;;2.45;1.60;;;;;;;17.14;42.93;99942.25;5109051;28;20505;-36
2022/10/04 06:06:04;;;;;;;5.40;1.90;;;;;;;17.34;43.01;99947.19;5108841;28;20023;-36
2022/10/04 06:08:32;;;;;;;4.68;2.00;;;;;;;17.71;43.05;99945.88;5108838;28;20051;-36
2022/10/04 06:11:08;;;;;;;4.43;2.15;;;;;;;17.60;42.92;99955.66;5108933;28;20039;-35
2022/10/04 06:13:52;;;;;;;4.07;1.90;;;;;;;17.81;42.83;99951.41;5108998;28;20015;-35
2022/10/04 06:17:02;;;;;;;7.10;2.40;;;;;;;17.79;43.08;99943.56;5109382;28;20102;-36
2022/10/04 06:19:51;;;;;;;4.68;1.80;;;;;;;17.88;42.41;99946.72;5101156;28;20031;-36
2022/10/04 06:22:22;;;;;;;4.32;1.80;;;;;;;17.77;42.46;99955.66;5110469;28;20047;-37
2022/10/04 06:24:52;;;;;;;9.95;2.20;;;;;;;17.86;42.68;99958.75;5110157;28;20027;-36
2022/10/04 06:27:40;;;;;;;12.32;2.20;;;;;;;17.44;43.93;99959.97;5110492;28;20019;-36
2022/10/04 06:30:17;;;;;;;3.50;1.60;;;;;;;17.44;43.27;99961.84;5110832;28;20028;-38
2022/10/04 06:33:09;;;;;;;4.03;2.15;;;;;;;17.64;42.90;99964.88;5110580;28;20024;-35
2022/10/04 06:35:54;;;;;;;7.40;1.98;;;;;;;18.39;41.79;99970.00;5079047;28;20364;-35
2022/10/04 06:38:30;;;;;;;3.17;1.85;;;;;;;18.44;41.47;99970.09;5109741;28;20055;-35
2022/10/04 06:41:18;;;;;;;2.65;1.83;;;;;;;18.05;41.91;99965.53;5110346;28;20487;-36
2022/10/04 06:43:46;;;;;;;4.90;1.98;;;;;;;18.13;41.87;99973.19;5110480;28;20030;-36
2022/10/04 06:46:37;;;;;;;8.30;2.08;;;;;;;18.23;41.71;99963.63;5110078;28;20088;-34
2022/10/04 06:49:16;;;;;;;3.90;2.00;;;;;;;18.06;42.01;99972.53;5110001;28;20043;-37
2022/10/04 06:52:12;;;;;;;12.93;2.13;;;;;;;17.73;43.04;99970.66;5109911;28;20479;-36
2022/10/04 06:54:52;;;;;;;5.13;1.98;;;;;;;17.63;42.99;99975.88;5109813;28;20032;-37
2022/10/04 06:57:36;;;;;;;4.10;2.33;;;;;;;17.65;42.90;99985.34;5109645;28;20027;-36
2022/10/04 07:00:21;;;;;;;4.05;1.80;;;;;;;17.64;43.52;99989.09;5109474;28;20605;-37
2022/10/04 07:02:56;;;;;;;4.10;1.90;;;;;;;17.81;42.56;99983.72;5109659;28;20035;-36
2022/10/04 07:05:47;;;;;;;3.13;2.05;;;;;;;17.56;43.24;99986.81;5109629;28;20047;-37
2022/10/04 07:08:30;;;;;;;3.22;1.70;;;;;;;16.98;44.60;99983.34;5109941;28;20452;-36
2022/10/04 07:11:01;;;;;;;2.72;1.80;;;;;;;17.02;44.63;99983.69;5109635;28;20031;-36
2022/10/04 07:13:26;;;;;;;3.47;2.10;;;;;;;17.43;43.79;99996.00;5109498;28;20050;-35
2022/10/04 07:16:14;;;;;;;5.95;1.75;;;;;;;18.14;42.51;99999.06;5109845;28;20027;-35
2022/10/04 07:19:04;;;;;;;3.55;2.00;;;;;;;18.65;41.62;99995.41;5109382;28;20031;-36
2022/10/04 07:21:43;;;;;;;3.47;2.00;;;;;;;17.93;42.50;100011.41;5112334;28;20588;-35
2022/10/04 07:24:16;;;;;;;2.67;1.80;;;;;;;18.03;42.11;100009.91;5113760;28;20030;-35
2022/10/04 07:26:49;;;;;;;9.55;2.28;;;;;;;17.92;42.83;100015.13;5113772;28;20114;-37
2022/10/04 07:29:21;;;;;;;7.10;1.70;;;;;;;17.78;42.38;100013.78;5113734;28;20098;-37
2022/10/04 07:32:04;;;;;;;3.15;1.80;;;;;;;18.70;41.28;100017.84;5113409;28;20046;-36
2022/10/04 07:34:55;;;;;;;2.70;1.73;;;;;;;18.58;41.35;100017.16;5112911;28;20106;-36
2022/10/04 07:37:24;;;;;;;18.10;2.42;;;;;;;18.69;40.90;100018.09;5074406;28;20494;-36
2022/10/04 07:40:17;;;;;;;2.42;1.85;;;;;;;19.01;40.82;100018.25;5112672;28;20114;-36
2022/10/04 07:42:53;;;;;;;4.70;2.17;;;;;;;19.23;40.54;100012.00;5111413;28;20028;-36
2022/10/04 07:45:31;;;;;;;3.67;1.95;;;;;;;19.58;39.42;100010.72;5113371;28;20027;-35
2022/10/04 07:48:15;;;;;;;2.97;1.70;;;;;;;19.85;38.87;100008.00;5112919;28;20046;-36
2022/10/04 07:50:55;;;;;;;5.28;2.03;;;;;;;20.09;38.39;100013.84;5113010;28;20035;-36
2022/10/04 07:53:41;;;;;;;;;;;;;;;20.87;36.65;100010.50;5113426;28;20140;-36
2022/10/04 07:56:10;;;;;;;5.15;1.70;;;;;;;20.29;37.44;100011.25;5112394;28;19911;-36
2022/10/04 07:58:44;;;;;;;5.07;1.98;;;;;;;20.50;37.70;100008.69;5112654;28;20110;-36
2022/10/04 08:01:38;;;;;;;5.72;2.15;;;;;;;20.97;36.59;100005.13;5112621;28;20107;-37
2022/10/04 08:04:36;;;;;;;5.28;1.63;;;;;;;20.92;36.52;100021.31;5076315;28;20384;-37
2022/10/04 08:07:12;;;;;;;3.47;1.70;;;;;;;21.25;35.80;100005.75;5112993;28;20634;-35
2022/10/04 08:09:40;;;;;;;8.18;1.80;;;;;;;20.89;36.44;100009.16;5112867;28;20030;-37
2022/10/04 08:12:23;;;;;;;12.15;2.13;;;;;;;22.06;34.57;100017.69;5112923;28;20030;-36
2022/10/04 08:15:01;;;;;;;5.97;1.77;;;;;;;22.11;33.83;100000.63;5111565;28;20412;-36
2022/10/04 08:17:57;;;;;;;6.45;2.05;;;;;;;22.38;33.92;100016.59;5108690;28;20096;-37
2022/10/04 08:20:43;;;;;;;10.73;2.00;;;;;;;21.95;34.12;99999.81;5105711;28;20176;-42
2022/10/04 08:23:22;;;;;;;7.65;1.65;;;;;;;22.84;33.42;100000.13;5110526;28;20023;-43
2022/10/04 08:25:50;;;;;;;9.70;1.70;;;;;;;22.77;32.31;100007.75;5109602;28;20076;-43
2022/10/04 08:31:21;;;;;;;3.50;1.30;;;;;;;22.80;32.33;100020.78;5103301;28;20097;-43
2022/10/04 08:33:58;;;;;;;3.65;1.40;;;;;;;23.40;31.36;100009.91;5107938;28;20035;-43
2022/10/04 08:36:42;;;;;;;7.30;1.30;;;;;;;23.03;31.63;100017.44;5096337;28;20019;-43
2022/10/04 08:39:35;;;;;;;3.38;1.13;;;;;;;23.28;31.79;100007.50;5112292;28;20416;-43
2022/10/04 08:42:15;;;;;;;3.63;1.70;;;;;;;22.99;31.47;100020.97;5109626;28;20110;-42
2022/10/04 08:45:02;;;;;;;4.30;1.23;;;;;;;23.41;31.47;100006.88;5108440;28;20023;-43
2022/10/04 08:47:32;;;;;;;2.95;1.20;;;;;;;23.93;30.77;100001.06;5110895;28;20023;-42
2022/10/04 08:50:18;;;;;;;;;;;;;;;23.62;30.81;99995.88;5112768;28;20040;-42
2022/10/04 08:53:01;;;;;;;3.08;0.95;;;;;;;23.50;31.13;100009.81;5109790;28;19962;-42
2022/10/04 08:55:36;;;;;;;3.88;0.95;;;;;;;23.12;31.40;100012.22;5109716;28;20038;-42
2022/10/04 08:58:39;;;;;;;4.03;1.13;;;;;;;22.59;31.61;100015.44;5111860;28;20051;-42
2022/10/04 09:01:39;;;;;;;3.30;1.40;;;;;;;23.11;30.89;100026.06;5111619;28;20027;-42
2022/10/04 09:04:04;;;;;;;3.60;1.20;;;;;;;23.13;35.89;100029.31;5111665;28;20176;-42
2022/10/04 09:06:48;;;;;;;2.65;1.10;;;;;;;23.06;30.76;100029.66;5111905;28;20457;-42
2022/10/04 09:09:54;;;;;;;2.40;1.00;;;;;;;22.78;31.23;100022.97;5093106;28;20036;-43
2022/10/04 09:12:43;;;;;;;4.25;1.60;;;;;;;22.73;31.62;100031.94;5109747;28;20123;-42
2022/10/04 09:15:33;;;;;;;16.88;6.95;;;;;;;23.29;30.46;100014.56;5108249;28;20265;-43
2022/10/04 09:18:11;;;;;;;3.50;1.35;;;;;;;23.13;30.67;100034.75;5110258;28;20031;-42
2022/10/04 09:21:00;;;;;;;2.42;1.80;;;;;;;22.93;30.45;100031.03;5111009;28;20067;-42
2022/10/04 09:23:28;;;;;;;1.70;1.10;;;;;;;23.57;30.09;100033.91;5110992;28;20487;-42
2022/10/04 09:26:20;;;;;;;2.25;1.30;;;;;;;23.34;30.16;100030.84;5111067;28;20031;-43
2022/10/04 09:29:23;;;;;;;2.85;1.10;;;;;;;22.38;31.19;100032.84;5110220;28;20032;-42
2022/10/04 09:32:15;;;;;;;3.30;1.30;;;;;;;22.55;31.29;100038.75;5111080;28;20047;-43
2022/10/04 09:35:18;;;;;;;3.30;1.20;;;;;;;22.13;31.04;100034.50;5111502;28;20103;-43
2022/10/04 09:38:06;;;;;;;2.83;1.17;;;;;;;22.41;31.18;100040.44;5111452;28;20053;-42
2022/10/04 09:41:02;;;;;;;2.72;1.30;;;;;;;22.45;31.25;100033.38;5111051;28;20028;-42
2022/10/04 09:44:15;;;;;;;2.97;2.00;;;;;;;22.86;31.26;100030.50;5110776;28;20046;-42
2022/10/04 09:46:56;;;;;;;2.03;1.60;;;;;;;22.81;30.04;100034.06;5110837;28;20055;-42
2022/10/04 09:49:26;;;;;;;3.85;1.83;;;;;;;22.62;30.93;100030.34;5110985;28;20468;-42
2022/10/04 09:52:20;;;;;;;3.70;2.72;;;;;;;23.33;29.85;100028.41;5110729;28;20031;-42
2022/10/04 09:55:08;;;;;;;2.90;2.20;;;;;;;24.18;28.31;100032.66;5110514;28;20037;-41
2022/10/04 09:57:40;;;;;;;2.88;1.20;;;;;;;23.84;28.82;100027.22;5111181;28;20027;-42
2022/10/04 10:00:44;;;;;;;3.90;1.05;;;;;;;23.11;29.07;100031.50;5111149;28;20020;-43
2022/10/04 10:03:11;;;;;;;2.65;1.05;;;;;;;23.00;29.05;100030.75;5066330;28;20035;-43
2022/10/04 10:06:03;;;;;;;2.28;0.93;;;;;;;23.17;28.64;100031.22;5111042;28;20036;-43
2022/10/04 10:09:01;;;;;;;1.73;1.13;;;;;;;23.00;29.17;100028.81;5111379;28;20487;-43
2022/10/04 10:15:06;;;;;;;4.03;1.20;;;;;;;22.35;30.24;100030.69;5111024;28;20049;-43
2022/10/04 10:17:46;;;;;;;8.57;1.27;;;;;;;21.37;31.98;100032.56;5110811;28;20019;-43
2022/10/04 10:20:27;;;;;;;12.85;1.85;;;;;;;21.19;32.74;100031.16;5110816;28;20052;-43
2022/10/04 10:22:58;;;;;;;5.45;1.30;;;;;;;21.78;31.79;100038.84;5109773;28;20063;-42
2022/10/04 10:25:36;;;;;;;4.90;1.70;;;;;;;21.53;31.98;100031.50;5110725;28;20027;-41
2022/10/04 10:28:24;;;;;;;4.55;1.45;;;;;;;21.65;31.90;100034.78;5110690;28;20031;-44
2022/10/04 10:31:07;;;;;;;4.28;1.30;;;;;;;21.52;31.35;100037.22;5110860;28;20098;-42
2022/10/04 10:34:03;;;;;;;2.80;1.13;;;;;;;21.53;31.91;100023.38;5110776;28;20487;-42
2022/10/04 10:37:08;;;;;;;3.15;1.20;;;;;;;21.75;31.76;100023.13;5110716;28;20030;-42
2022/10/04 10:40:01;;;;;;;9.00;1.67;;;;;;;21.51;32.12;100022.84;5110254;28;20044;-42
2022/10/04 10:42:38;;;;;;;4.60;1.40;;;;;;;21.48;32.04;100015.28;5109985;28;20024;-43
2022/10/04 10:45:20;;;;;;;7.45;2.33;;;;;;;21.71;31.19;100016.63;5110241;28;20364;-44
2022/10/04 10:48:09;;;;;;;26.95;3.30;;;;;;;21.55;31.58;100015.00;5110178;28;20027;-44
2022/10/04 10:51:05;;;;;;;31.50;4.57;;;;;;;21.25;31.17;100017.38;5110585;28;20062;-43
2022/10/04 10:54:07;;;;;;;19.58;3.40;;;;;;;22.05;30.31;100018.78;5110155;28;20054;-43
2022/10/04 10:56:44;;;;;;;6.45;2.00;;;;;;;22.12;29.55;100022.00;5114448;28;20114;-43
2022/10/04 10:59:40;;;;;;;6.88;4.13;;;;;;;21.60;30.58;100020.41;5114330;28;20020;-43
2022/10/04 11:02:27;;;;;;;6.43;4.05;;;;;;;21.56;30.76;100019.34;5114227;28;20027;-43
2022/10/04 11:05:02;;;;;;;10.93;5.22;;;;;;;21.76;30.57;100021.22;5114263;28;20520;-43
2022/10/04 11:07:31;;;;;;;11.07;7.93;;;;;;;22.12;30.15;100026.63;5113852;28;20031;-42
2022/10/04 11:10:34;;;;;;;10.90;5.57;;;;;;;22.25;29.79;100026.09;5113839;28;20031;-43
2022/10/04 11:13:35;;;;;;;14.85;5.45;;;;;;;22.25;29.29;100024.19;5113836;28;20034;-42
2022/10/04 11:16:20;;;;;;;9.57;5.60;;;;;;;21.94;29.99;100026.13;5113497;28;20032;-43
2022/10/04 11:19:14;;;;;;;10.50;4.60;;;;;;;21.56;30.97;100022.06;5113682;28;20027;-42
2022/10/04 11:22:24;;;;;;;6.65;4.57;;;;;;;21.93;29.95;100029.88;5113650;28;20066;-43
2022/10/04 11:25:18;;;;;;;7.68;5.47;;;;;;;21.80;30.63;100023.16;5030648;28;20051;-42
2022/10/04 11:28:20;;;;;;;10.07;4.80;;;;;;;22.16;29.68;100030.41;5030444;28;20040;-42
2022/10/04 11:31:09;;;;;;;9.10;5.40;;;;;;;22.22;29.15;100016.59;5108955;28;20050;-42
2022/10/04 11:33:59;;;;;;;9.23;6.25;;;;;;;22.24;29.67;100033.41;5113033;28;20028;-42
2022/10/04 11:36:46;;;;;;;8.38;4.30;;;;;;;22.46;30.05;100029.56;5113547;28;20513;-43
2022/10/04 11:39:39;;;;;;;11.20;3.97;;;;;;;22.60;30.28;100022.50;5113258;28;20488;-42
2022/10/04 11:42:40;;;;;;;3.88;2.05;;;;;;;22.14;30.09;100038.84;5113393;28;20411;-43
2022/10/04 11:45:32;;;;;;;2.67;2.10;;;;;;;22.71;29.66;100031.38;5043736;28;20046;-42
2022/10/04 11:48:00;;;;;;;5.75;2.67;;;;;;;22.37;29.51;100033.94;5113325;28;20035;-43
2022/10/04 11:50:44;;;;;;;7.32;2.40;;;;;;;22.09;30.34;100033.41;5113507;28;20100;-43
2022/10/04 11:53:12;;;;;;;5.53;2.35;;;;;;;22.51;29.55;100040.41;5112623;28;20041;-43
2022/10/04 11:56:03;;;;;;;5.32;2.47;;;;;;;22.29;30.18;100038.00;5112793;28;20027;-43
2022/10/04 11:58:34;;;;;;;4.75;2.70;;;;;;;22.29;29.99;100035.31;5074512;27;20045;-43
2022/10/04 12:01:29;;;;;;;6.43;2.70;;;;;;;22.25;30.68;100035.03;5113274;28;20502;-42
2022/10/04 12:04:22;;;;;;;4.53;2.70;;;;;;;22.18;30.67;100039.91;5113029;28;20459;-43
2022/10/04 12:07:26;;;;;;;8.63;2.92;;;;;;;22.52;30.33;100039.31;5112484;28;20107;-43
2022/10/04 12:10:17;;;;;;;6.05;2.05;;;;;;;22.22;30.25;100037.47;5113170;28;20046;-42
2022/10/04 12:12:52;;;;;;;2.03;1.45;;;;;;;21.99;31.07;100039.66;5112715;28;20045;-42
2022/10/04 12:15:21;;;;;;;3.60;1.58;;;;;;;21.55;31.07;100037.50;5112686;28;20027;-42
2022/10/04 12:18:06;;;;;;;2.20;1.52;;;;;;;21.46;31.49;100037.19;5112902;28;20067;-42
2022/10/04 12:20:38;;;;;;;1.98;1.30;;;;;;;21.66;31.37;100035.59;5112766;28;20043;-42
2022/10/04 12:23:41;;;;;;;2.55;1.33;;;;;;;21.60;32.02;100042.88;5112346;28;20031;-42
2022/10/04 12:26:31;;;;;;;3.03;1.67;;;;;;;21.76;31.62;100040.19;5112211;27;20483;-43
2022/10/04 12:29:11;;;;;;;3.53;2.20;;;;;;;20.97;32.80;100039.47;5110996;28;20105;-43
2022/10/04 12:31:48;;;;;;;3.67;2.17;;;;;;;21.11;32.41;100037.09;5112034;28;20432;-44
2022/10/04 12:34:26;;;;;;;17.00;12.00;;;;;;;21.32;32.63;100036.03;5112185;28;20027;-43
2022/10/04 12:37:01;;;;;;;5.32;2.60;;;;;;;21.18;32.51;100024.13;5110712;28;20028;-43